ADDS METAR Data INFO
IDs: Format: Raw Decoded Include TAF

Data at: 0114 UTC 21 Oct 2017

KBIE 210055Z AUTO 17020G27KT 10SM BKN060 22/15 A2971 RMK AO2 T02180146
KBIE 210035Z AUTO 16017G24KT 10SM SCT070 22/15 A2970 RMK AO2 T02200146
KBIE 210015Z AUTO 16018G23KT 10SM SCT070 22/15 A2970 RMK AO2 T02210146
KBIE 202355Z AUTO 16015G22KT 10SM CLR 23/15 A2971 RMK AO2 T02250148 10250 20223
KBIE 202335Z AUTO 16015G24KT 10SM CLR 23/15 A2971 RMK AO2 T02320150
KBIE 202315Z AUTO 17016G23KT 10SM SCT049 SCT065 24/15 A2971 RMK AO2 T02360152
KBIE 202255Z AUTO 17016G21KT 10SM SCT065 24/15 A2971 RMK AO2 T02420153
KBIE 202235Z AUTO 17014G24KT 10SM SCT060 SCT070 24/16 A2972 RMK AO2 T02420156
KBIE 202215Z AUTO 17019G28KT 10SM SCT060 24/16 A2972 RMK AO2 T02400155
KBIE 202155Z AUTO 18018G25KT 10SM SCT043 SCT050 SCT060 24/16 A2973 RMK AO2 T02390160
KBIE 202135Z AUTO 17019G25KT 10SM SCT043 BKN050 24/16 A2973 RMK AO2 T02420159
KBIE 202115Z AUTO 17017G23KT 10SM BKN047 24/16 A2974 RMK AO2 T02420157
KBIE 202055Z AUTO 18016G29KT 10SM BKN045 24/16 A2974 RMK AO2 T02440157
KBIE 202035Z AUTO 17021G28KT 10SM SCT043 SCT110 24/16 A2974 RMK AO2 T02420157
KBIE 202015Z AUTO 17023G30KT 10SM SCT041 24/15 A2974 RMK AO2 T02400153
KBIE 201955Z AUTO 16023G30KT 10SM BKN041 25/16 A2975 RMK AO2 T02500157
KBIE 201935Z AUTO 17020G31KT 10SM SCT041 24/15 A2976 RMK AO2 T02420153
KBIE 201915Z AUTO 17023G32KT 10SM SCT041 24/16 A2977 RMK AO2 T02430156
KBIE 201855Z AUTO 18022G26KT 10SM CLR 23/15 A2978 RMK AO2 T02250151
KBIE 201835Z AUTO 17019G26KT 10SM CLR 22/15 A2980 RMK AO2 T02230151
KBIE 201815Z AUTO 19022G29KT 10SM SCT037 24/15 A2982 RMK AO2 T02350151
KBIE 201755Z AUTO 18021G28KT 10SM CLR 23/15 A2983 RMK AO2 T02340149 10234 20145
KBIE 201735Z AUTO 17021G28KT 10SM CLR 23/15 A2985 RMK AO2 T02300146
KBIE 201715Z AUTO 17017G21KT 10SM CLR 23/15 A2986 RMK AO2 T02290146
KBIE 201655Z AUTO 17015G22KT 10SM CLR 22/15 A2987 RMK AO2 T02210146
KBIE 201635Z AUTO 18013G23KT 10SM CLR 20/14 A2988 RMK AO2 T02040141
KBIE 201615Z AUTO 17013G22KT 10SM CLR 20/14 A2989 RMK AO2 T01960136
KBIE 201555Z AUTO 17016G20KT 10SM CLR 19/14 A2990 RMK AO2 T01940135
KBIE 201535Z AUTO 17016G20KT 10SM CLR 19/13 A2991 RMK AO2 T01890132
KBIE 201515Z AUTO 17013G18KT 10SM CLR 18/13 A2992 RMK AO2 T01790130
KBIE 201455Z AUTO 17012G17KT 10SM CLR 17/13 A2993 RMK AO2 T01660125
KBIE 201435Z AUTO 17012G17KT 10SM CLR 16/12 A2994 RMK AO2 T01620122
KBIE 201415Z AUTO 17012G18KT 10SM CLR 16/12 A2995 RMK AO2 T01600120
KBIE 201355Z AUTO 17013G18KT 10SM CLR 16/12 A2995 RMK AO2 T01630120
KBIE 201335Z AUTO 17013G17KT 10SM CLR 16/12 A2994 RMK AO2 T01550117
KBIE 201315Z AUTO 17012KT 10SM CLR 15/12 A2995 RMK AO2 T01520116
KBIE 201255Z AUTO 17011KT 10SM CLR 15/12 A2995 RMK AO2 T01500116
KBIE 201235Z AUTO 17013G17KT 10SM CLR 15/12 A2995 RMK AO2 T01500115
KBIE 201215Z AUTO 17012KT 10SM CLR 15/12 A2996 RMK AO2 T01450115
KBIE 201155Z AUTO 17012G17KT 10SM CLR 15/12 A2996 RMK AO2 T01450116 10167 20130 402690051
KBIE 201135Z AUTO 16010G16KT 10SM CLR 14/12 A2997 RMK AO2 T01430116
KBIE 201115Z AUTO 16010KT 10SM CLR 14/12 A2997 RMK AO2 T01410116
KBIE 201055Z AUTO 15008KT 10SM CLR 13/11 A2997 RMK AO2 T01310113
KBIE 201035Z AUTO 14007KT 10SM CLR 13/11 A2997 RMK AO2 T01320113
KBIE 201015Z AUTO 15007KT 10SM CLR 14/12 A2997 RMK AO2 T01360115
KBIE 200955Z AUTO 16007KT 10SM CLR 14/12 A2997 RMK AO2 T01410115
KBIE 200935Z AUTO 16009KT 10SM CLR 14/11 A2997 RMK AO2 T01420114
KBIE 200915Z AUTO 17010KT 10SM CLR 14/11 A2997 RMK AO2 T01420112
KBIE 200855Z AUTO 17010KT 10SM CLR 15/11 A2998 RMK AO2 T01480111
KBIE 200835Z AUTO 18011G16KT 10SM CLR 15/11 A2998 RMK AO2 T01510111
KBIE 200815Z AUTO 18010KT 10SM CLR 15/11 A2998 RMK AO2 T01500108
KBIE 200755Z AUTO 18009KT 10SM CLR 15/11 A2999 RMK AO2 T01510106
KBIE 200735Z AUTO 17009KT 10SM CLR 15/11 A2999 RMK AO2 T01510105
KBIE 200715Z AUTO 17007KT 10SM CLR 15/10 A3000 RMK AO2 T01520103
KBIE 200655Z AUTO 18009G15KT 10SM CLR 16/10 A2999 RMK AO2 T01580102
KBIE 200635Z AUTO 17010KT 10SM CLR 16/10 A3000 RMK AO2 T01600100
KBIE 200615Z AUTO 17010KT 10SM CLR 16/10 A2999 RMK AO2 T01630098
KBIE 200555Z AUTO 17011G15KT 10SM CLR 17/10 A3000 RMK AO2 T01680097 10224 20167
KBIE 200535Z AUTO 18012G19KT 10SM CLR 17/10 A3000 RMK AO2 T01710095
KBIE 200515Z AUTO 18011KT 10SM CLR 17/09 A3000 RMK AO2 T01680091
KBIE 200455Z AUTO 17009KT 10SM CLR 17/09 A3000 RMK AO2 T01690090
KBIE 200435Z AUTO 17009KT 10SM CLR 17/09 A3000 RMK AO2 T01720091
KBIE 200415Z AUTO 17010G15KT 10SM CLR 18/09 A3000 RMK AO2 T01750092
KBIE 200355Z AUTO 17012KT 10SM CLR 18/09 A3000 RMK AO2 T01770092
KBIE 200335Z AUTO 17008KT 10SM CLR 18/09 A3000 RMK AO2 T01800091
KBIE 200315Z AUTO 17010KT 10SM CLR 18/09 A2999 RMK AO2 T01840092
KBIE 200255Z AUTO 17010KT 10SM CLR 19/10 A2999 RMK AO2 T01890095
KBIE 200235Z AUTO 17008KT 10SM CLR 19/10 A2999 RMK AO2 T01850097
KBIE 200215Z AUTO 16005KT 10SM CLR 18/10 A2999 RMK AO2 T01810097
KBIE 200155Z AUTO 15006KT 10SM CLR 19/10 A2999 RMK AO2 T01880098
KBIE 200135Z AUTO 15006KT 10SM CLR 19/10 A2998 RMK AO2 T01920098
KBIE 200115Z AUTO 15005KT 10SM CLR 20/10 A2998 RMK AO2 T01970100
KBIE 200055Z AUTO 15005KT 10SM CLR 21/10 A2998 RMK AO2 T02070097
KBIE 200035Z AUTO 15005KT 10SM CLR 21/10 A2998 RMK AO2 T02140095
KBIE 200015Z AUTO 17007KT 10SM CLR 22/10 A2998 RMK AO2 T02170098
KBIE 192355Z AUTO 16007KT 10SM CLR 23/10 A2998 RMK AO2 T02250103 10269 20221
KBIE 192335Z AUTO 16006KT 10SM CLR 23/11 A2998 RMK AO2 T02320112
KBIE 192315Z AUTO 15006KT 10SM CLR 25/11 A2998 RMK AO2 T02450114
KBIE 192255Z AUTO 16007KT 10SM CLR 25/12 A2998 RMK AO2 T02490118
KBIE 192235Z AUTO 16008KT 10SM CLR 26/12 A2998 RMK AO2 T02570115
KBIE 192215Z AUTO 18010KT 10SM CLR 26/12 A2998 RMK AO2 T02600119
KBIE 192155Z AUTO 18008KT 10SM CLR 27/12 A2998 RMK AO2 T02650115
KBIE 192135Z AUTO 18007KT 10SM CLR 27/13 A2999 RMK AO2 T02680128
KBIE 192115Z AUTO 18011KT 10SM CLR 27/12 A2999 RMK AO2 T02660124
KBIE 192055Z AUTO 18010KT 10SM CLR 27/13 A2999 RMK AO2 T02680130
KBIE 192035Z AUTO 16010G14KT 10SM CLR 27/13 A2999 RMK AO2 T02650128
KBIE 192015Z AUTO 19010KT 10SM CLR 27/13 A2999 RMK AO2 T02650131
KBIE 191955Z AUTO 18009KT 10SM CLR 26/13 A3000 RMK AO2 T02560134
KBIE 191935Z AUTO 18008KT 10SM CLR 25/14 A3001 RMK AO2 T02520136
KBIE 191915Z AUTO 17010KT 10SM CLR 25/13 A3002 RMK AO2 T02450133
KBIE 191855Z AUTO 19007KT 10SM CLR 24/13 A3003 RMK AO2 T02400132
KBIE 191835Z AUTO 17006KT 10SM CLR 23/13 A3004 RMK AO2 T02320132
KBIE 191815Z AUTO 15005KT 10SM CLR 22/13 A3004 RMK AO2 T02240127
KBIE 191755Z AUTO 20006KT 10SM CLR 22/13 A3005 RMK AO2 T02210128 10221 20051
KBIE 191735Z AUTO 16006KT 10SM CLR 22/13 A3006 RMK AO2 T02160130
KBIE 191715Z AUTO 19005KT 10SM CLR 21/12 A3007 RMK AO2 T02070124
KBIE 191655Z AUTO 17005KT 10SM CLR 20/12 A3007 RMK AO2 T01950123
KBIE 191635Z AUTO 19005KT 10SM CLR 19/12 A3007 RMK AO2 T01860122
KBIE 191615Z AUTO 17004KT 10SM CLR 18/12 A3007 RMK AO2 T01780119
KBIE 191555Z AUTO 17004KT 10SM CLR 17/11 A3007 RMK AO2 T01690113
KBIE 191535Z AUTO 15003KT 10SM CLR 16/12 A3007 RMK AO2 T01600117
KBIE 191515Z AUTO 16004KT 10SM CLR 15/11 A3008 RMK AO2 T01470108
KBIE 191455Z AUTO 17003KT 10SM CLR 15/11 A3008 RMK AO2 T01450107
KBIE 191435Z AUTO 12004KT 10SM CLR 13/11 A3007 RMK AO2 T01310105
KBIE 191415Z AUTO 00000KT 10SM CLR 11/10 A3007 RMK AO2 T01100095
KBIE 191355Z AUTO 00000KT 10SM CLR 09/08 A3006 RMK AO2 T00920081
KBIE 191335Z AUTO 00000KT 10SM CLR 08/07 A3006 RMK AO2 T00800072
KBIE 191315Z AUTO 00000KT 10SM CLR 07/06 A3006 RMK AO2 T00670061